Bouillon, Belgium
Current Conditions -  °F | °C
As of 8:55 PM on Saturday 20 Dec 2014 (Local Time) from EBFS Reporting Station
Broken Clouds Broken Clouds  
Wind Chill: 33°   Ceiling: 5000
Heat Index: 41°   Visibility: 6mi
Dew Point: 36°   Wind: 14mph
Humidity: 81%   Direction: 270°W
Pressure: 30.36"   Gusts: NA
Location:  49.79°N, 5.07°E
Report Text: EBFS 201955Z AUTO 27012KT 9999 FEW023/// SCT031/// BKN050/// 05/02 Q1028 BLU
Loading
Personal Weather Stations






























Interactive Weather Map New forecast layout! Learn more

10-Day Weather Forecast

Advertisements
Track Severe Weather on mobile